sensor_id;sensor_type;location;lat;lon;timestamp;P1;durP1;ratioP1;P2;durP2;ratioP2
67442;SDS011;54311;51.726;5.154;2022-12-07T00:01:21;16.58;;;12.30;;
67442;SDS011;54311;51.726;5.154;2022-12-07T00:03:49;12.02;;;10.88;;
67442;SDS011;54311;51.726;5.154;2022-12-07T00:06:15;13.48;;;11.70;;
67442;SDS011;54311;51.726;5.154;2022-12-07T00:08:41;12.05;;;10.95;;
67442;SDS011;54311;51.726;5.154;2022-12-07T00:11:17;12.43;;;11.30;;
67442;SDS011;54311;51.726;5.154;2022-12-07T00:13:44;15.75;;;11.48;;
67442;SDS011;54311;51.726;5.154;2022-12-07T00:16:11;13.80;;;11.90;;
67442;SDS011;54311;51.726;5.154;2022-12-07T00:18:38;12.40;;;11.38;;
67442;SDS011;54311;51.726;5.154;2022-12-07T00:21:10;12.30;;;11.10;;
67442;SDS011;54311;51.726;5.154;2022-12-07T00:23:40;15.15;;;11.20;;
67442;SDS011;54311;51.726;5.154;2022-12-07T00:26:07;12.73;;;10.52;;
67442;SDS011;54311;51.726;5.154;2022-12-07T00:28:34;11.13;;;9.90;;
67442;SDS011;54311;51.726;5.154;2022-12-07T00:31:03;12.80;;;11.02;;
67442;SDS011;54311;51.726;5.154;2022-12-07T00:33:30;14.48;;;10.45;;
67442;SDS011;54311;51.726;5.154;2022-12-07T00:35:56;11.07;;;10.15;;
67442;SDS011;54311;51.726;5.154;2022-12-07T00:38:22;12.73;;;10.38;;
67442;SDS011;54311;51.726;5.154;2022-12-07T00:40:55;10.98;;;9.77;;
67442;SDS011;54311;51.726;5.154;2022-12-07T00:43:21;11.50;;;9.43;;
67442;SDS011;54311;51.726;5.154;2022-12-07T00:45:46;11.88;;;9.02;;
67442;SDS011;54311;51.726;5.154;2022-12-07T00:48:11;10.23;;;8.93;;
67442;SDS011;54311;51.726;5.154;2022-12-07T00:50:37;11.07;;;8.70;;
67442;SDS011;54311;51.726;5.154;2022-12-07T00:53:02;11.93;;;8.88;;
67442;SDS011;54311;51.726;5.154;2022-12-07T00:55:28;11.80;;;9.50;;
67442;SDS011;54311;51.726;5.154;2022-12-07T00:57:53;9.25;;;8.48;;
67442;SDS011;54311;51.726;5.154;2022-12-07T01:00:18;10.07;;;9.05;;
67442;SDS011;54311;51.726;5.154;2022-12-07T01:02:44;11.20;;;8.90;;
67442;SDS011;54311;51.726;5.154;2022-12-07T01:05:09;9.88;;;8.88;;
67442;SDS011;54311;51.726;5.154;2022-12-07T01:07:34;11.18;;;8.55;;
67442;SDS011;54311;51.726;5.154;2022-12-07T01:09:59;11.50;;;9.63;;
67442;SDS011;54311;51.726;5.154;2022-12-07T01:12:25;9.93;;;8.93;;
67442;SDS011;54311;51.726;5.154;2022-12-07T01:14:50;9.25;;;8.18;;
67442;SDS011;54311;51.726;5.154;2022-12-07T01:17:15;9.05;;;8.32;;
67442;SDS011;54311;51.726;5.154;2022-12-07T01:19:41;10.70;;;8.35;;
67442;SDS011;54311;51.726;5.154;2022-12-07T01:22:06;9.60;;;8.65;;
67442;SDS011;54311;51.726;5.154;2022-12-07T01:24:31;15.38;;;7.95;;
67442;SDS011;54311;51.726;5.154;2022-12-07T01:26:57;9.13;;;8.23;;
67442;SDS011;54311;51.726;5.154;2022-12-07T01:29:22;8.80;;;8.02;;
67442;SDS011;54311;51.726;5.154;2022-12-07T01:31:48;8.18;;;7.40;;
67442;SDS011;54311;51.726;5.154;2022-12-07T01:34:14;8.57;;;7.05;;
67442;SDS011;54311;51.726;5.154;2022-12-07T01:36:39;8.93;;;7.30;;
67442;SDS011;54311;51.726;5.154;2022-12-07T01:39:05;9.50;;;7.70;;
67442;SDS011;54311;51.726;5.154;2022-12-07T01:41:33;11.68;;;7.65;;
67442;SDS011;54311;51.726;5.154;2022-12-07T01:44:17;10.45;;;7.93;;
67442;SDS011;54311;51.726;5.154;2022-12-07T01:46:50;11.90;;;7.60;;
67442;SDS011;54311;51.726;5.154;2022-12-07T01:49:17;8.10;;;7.50;;
67442;SDS011;54311;51.726;5.154;2022-12-07T01:51:56;8.40;;;7.00;;
67442;SDS011;54311;51.726;5.154;2022-12-07T01:54:33;7.10;;;6.57;;
67442;SDS011;54311;51.726;5.154;2022-12-07T01:56:59;9.40;;;7.43;;
67442;SDS011;54311;51.726;5.154;2022-12-07T01:59:24;8.20;;;7.32;;
67442;SDS011;54311;51.726;5.154;2022-12-07T02:01:51;9.80;;;6.90;;
67442;SDS011;54311;51.726;5.154;2022-12-07T02:04:17;13.40;;;7.78;;
67442;SDS011;54311;51.726;5.154;2022-12-07T02:06:43;7.88;;;7.18;;
67442;SDS011;54311;51.726;5.154;2022-12-07T02:09:10;8.35;;;7.63;;
67442;SDS011;54311;51.726;5.154;2022-12-07T02:11:35;10.27;;;7.57;;
67442;SDS011;54311;51.726;5.154;2022-12-07T02:14:01;12.68;;;7.60;;
67442;SDS011;54311;51.726;5.154;2022-12-07T02:16:32;8.38;;;7.50;;
67442;SDS011;54311;51.726;5.154;2022-12-07T02:24:36;8.18;;;7.38;;
67442;SDS011;54311;51.726;5.154;2022-12-07T02:30:00;10.60;;;7.18;;
67442;SDS011;54311;51.726;5.154;2022-12-07T02:43:19;7.53;;;6.70;;
67442;SDS011;54311;51.726;5.154;2022-12-07T02:45:47;9.63;;;6.05;;
67442;SDS011;54311;51.726;5.154;2022-12-07T02:48:13;6.43;;;5.88;;
67442;SDS011;54311;51.726;5.154;2022-12-07T02:50:59;6.82;;;5.68;;
67442;SDS011;54311;51.726;5.154;2022-12-07T02:53:34;6.93;;;6.35;;
67442;SDS011;54311;51.726;5.154;2022-12-07T02:58:46;9.55;;;6.40;;
67442;SDS011;54311;51.726;5.154;2022-12-07T03:01:24;7.25;;;6.03;;
67442;SDS011;54311;51.726;5.154;2022-12-07T03:06:53;11.95;;;6.28;;
67442;SDS011;54311;51.726;5.154;2022-12-07T03:09:26;8.38;;;6.30;;
67442;SDS011;54311;51.726;5.154;2022-12-07T03:12:01;10.55;;;5.82;;
67442;SDS011;54311;51.726;5.154;2022-12-07T03:14:35;7.55;;;5.22;;
67442;SDS011;54311;51.726;5.154;2022-12-07T03:17:16;6.15;;;5.60;;
67442;SDS011;54311;51.726;5.154;2022-12-07T03:19:45;14.68;;;5.05;;
67442;SDS011;54311;51.726;5.154;2022-12-07T03:22:12;5.90;;;5.38;;
67442;SDS011;54311;51.726;5.154;2022-12-07T03:24:41;10.48;;;5.80;;
67442;SDS011;54311;51.726;5.154;2022-12-07T03:27:16;6.13;;;5.10;;
67442;SDS011;54311;51.726;5.154;2022-12-07T03:32:44;7.65;;;4.95;;
67442;SDS011;54311;51.726;5.154;2022-12-07T03:42:48;7.95;;;4.72;;
67442;SDS011;54311;51.726;5.154;2022-12-07T03:45:14;8.15;;;5.18;;
67442;SDS011;54311;51.726;5.154;2022-12-07T03:50:38;6.07;;;4.55;;
67442;SDS011;54311;51.726;5.154;2022-12-07T03:55:44;6.25;;;4.38;;
67442;SDS011;54311;51.726;5.154;2022-12-07T03:58:12;6.78;;;4.35;;
67442;SDS011;54311;51.726;5.154;2022-12-07T04:00:41;6.13;;;4.78;;
67442;SDS011;54311;51.726;5.154;2022-12-07T04:03:07;7.18;;;4.28;;
67442;SDS011;54311;51.726;5.154;2022-12-07T04:05:32;5.97;;;4.75;;
67442;SDS011;54311;51.726;5.154;2022-12-07T04:07:58;9.10;;;4.50;;
67442;SDS011;54311;51.726;5.154;2022-12-07T04:10:23;8.25;;;4.97;;
67442;SDS011;54311;51.726;5.154;2022-12-07T04:12:48;6.35;;;5.30;;
67442;SDS011;54311;51.726;5.154;2022-12-07T04:15:13;7.45;;;4.85;;
67442;SDS011;54311;51.726;5.154;2022-12-07T04:17:39;9.35;;;5.00;;
67442;SDS011;54311;51.726;5.154;2022-12-07T04:20:05;5.22;;;4.72;;
67442;SDS011;54311;51.726;5.154;2022-12-07T04:22:31;5.47;;;5.03;;
67442;SDS011;54311;51.726;5.154;2022-12-07T04:24:56;10.43;;;5.57;;
67442;SDS011;54311;51.726;5.154;2022-12-07T04:27:21;7.07;;;5.00;;
67442;SDS011;54311;51.726;5.154;2022-12-07T04:29:47;7.00;;;5.78;;
67442;SDS011;54311;51.726;5.154;2022-12-07T04:32:12;6.85;;;5.20;;
67442;SDS011;54311;51.726;5.154;2022-12-07T04:34:37;5.43;;;4.75;;
67442;SDS011;54311;51.726;5.154;2022-12-07T04:37:03;7.25;;;4.63;;
67442;SDS011;54311;51.726;5.154;2022-12-07T04:39:29;7.25;;;5.38;;
67442;SDS011;54311;51.726;5.154;2022-12-07T04:41:56;11.00;;;4.72;;
67442;SDS011;54311;51.726;5.154;2022-12-07T04:44:21;9.98;;;5.45;;
67442;SDS011;54311;51.726;5.154;2022-12-07T04:46:48;5.35;;;4.70;;
67442;SDS011;54311;51.726;5.154;2022-12-07T04:49:13;6.35;;;4.88;;
67442;SDS011;54311;51.726;5.154;2022-12-07T04:51:39;8.93;;;5.03;;
67442;SDS011;54311;51.726;5.154;2022-12-07T04:54:05;12.80;;;5.50;;
67442;SDS011;54311;51.726;5.154;2022-12-07T04:56:31;6.55;;;5.13;;
67442;SDS011;54311;51.726;5.154;2022-12-07T04:58:56;10.48;;;5.63;;
67442;SDS011;54311;51.726;5.154;2022-12-07T05:01:22;7.40;;;5.60;;
67442;SDS011;54311;51.726;5.154;2022-12-07T05:03:47;10.85;;;5.70;;
67442;SDS011;54311;51.726;5.154;2022-12-07T05:06:13;8.23;;;5.15;;
67442;SDS011;54311;51.726;5.154;2022-12-07T05:08:39;5.75;;;5.25;;
67442;SDS011;54311;51.726;5.154;2022-12-07T05:11:05;5.82;;;5.40;;
67442;SDS011;54311;51.726;5.154;2022-12-07T05:13:31;5.97;;;4.97;;
67442;SDS011;54311;51.726;5.154;2022-12-07T05:15:56;6.55;;;5.95;;
67442;SDS011;54311;51.726;5.154;2022-12-07T05:18:22;8.13;;;5.50;;
67442;SDS011;54311;51.726;5.154;2022-12-07T05:20:47;12.70;;;6.50;;
67442;SDS011;54311;51.726;5.154;2022-12-07T05:23:13;10.02;;;6.25;;
67442;SDS011;54311;51.726;5.154;2022-12-07T05:25:38;8.27;;;6.10;;
67442;SDS011;54311;51.726;5.154;2022-12-07T05:28:04;8.95;;;6.30;;
67442;SDS011;54311;51.726;5.154;2022-12-07T05:30:30;7.13;;;6.28;;
67442;SDS011;54311;51.726;5.154;2022-12-07T05:32:55;10.63;;;6.22;;
67442;SDS011;54311;51.726;5.154;2022-12-07T05:35:21;9.55;;;6.55;;
67442;SDS011;54311;51.726;5.154;2022-12-07T05:37:46;8.10;;;7.00;;
67442;SDS011;54311;51.726;5.154;2022-12-07T05:40:12;8.50;;;7.13;;
67442;SDS011;54311;51.726;5.154;2022-12-07T05:42:38;8.43;;;6.95;;
67442;SDS011;54311;51.726;5.154;2022-12-07T05:45:04;7.75;;;6.40;;
67442;SDS011;54311;51.726;5.154;2022-12-07T05:47:30;8.18;;;7.38;;
67442;SDS011;54311;51.726;5.154;2022-12-07T05:49:55;11.20;;;7.18;;
67442;SDS011;54311;51.726;5.154;2022-12-07T05:52:20;8.25;;;7.50;;
67442;SDS011;54311;51.726;5.154;2022-12-07T05:54:46;15.95;;;8.68;;
67442;SDS011;54311;51.726;5.154;2022-12-07T05:57:11;12.38;;;6.90;;
67442;SDS011;54311;51.726;5.154;2022-12-07T05:59:36;6.97;;;6.28;;
67442;SDS011;54311;51.726;5.154;2022-12-07T06:02:03;7.65;;;6.47;;
67442;SDS011;54311;51.726;5.154;2022-12-07T06:04:34;14.93;;;6.40;;
67442;SDS011;54311;51.726;5.154;2022-12-07T06:07:01;7.18;;;6.07;;
67442;SDS011;54311;51.726;5.154;2022-12-07T06:09:27;11.13;;;6.20;;
67442;SDS011;54311;51.726;5.154;2022-12-07T06:11:53;7.07;;;6.40;;
67442;SDS011;54311;51.726;5.154;2022-12-07T06:14:37;9.50;;;6.20;;
67442;SDS011;54311;51.726;5.154;2022-12-07T06:17:03;7.78;;;6.00;;
67442;SDS011;54311;51.726;5.154;2022-12-07T06:19:29;14.40;;;7.47;;
67442;SDS011;54311;51.726;5.154;2022-12-07T06:21:54;7.72;;;6.15;;
67442;SDS011;54311;51.726;5.154;2022-12-07T06:24:21;7.47;;;6.07;;
67442;SDS011;54311;51.726;5.154;2022-12-07T06:26:47;8.07;;;7.22;;
67442;SDS011;54311;51.726;5.154;2022-12-07T06:29:12;8.60;;;6.80;;
67442;SDS011;54311;51.726;5.154;2022-12-07T06:31:38;7.32;;;6.50;;
67442;SDS011;54311;51.726;5.154;2022-12-07T06:34:05;7.47;;;6.78;;
67442;SDS011;54311;51.726;5.154;2022-12-07T06:36:31;8.32;;;6.25;;
67442;SDS011;54311;51.726;5.154;2022-12-07T06:38:57;8.25;;;6.55;;
67442;SDS011;54311;51.726;5.154;2022-12-07T06:41:22;7.55;;;6.63;;
67442;SDS011;54311;51.726;5.154;2022-12-07T06:43:48;9.02;;;6.97;;
67442;SDS011;54311;51.726;5.154;2022-12-07T06:46:14;12.35;;;7.25;;
67442;SDS011;54311;51.726;5.154;2022-12-07T06:48:40;7.65;;;6.68;;
67442;SDS011;54311;51.726;5.154;2022-12-07T06:51:06;12.65;;;8.27;;
67442;SDS011;54311;51.726;5.154;2022-12-07T06:53:31;12.38;;;7.65;;
67442;SDS011;54311;51.726;5.154;2022-12-07T06:55:56;11.75;;;8.32;;
67442;SDS011;54311;51.726;5.154;2022-12-07T06:58:22;8.75;;;8.02;;
67442;SDS011;54311;51.726;5.154;2022-12-07T07:00:47;9.20;;;8.32;;
67442;SDS011;54311;51.726;5.154;2022-12-07T07:03:14;9.05;;;7.55;;
67442;SDS011;54311;51.726;5.154;2022-12-07T07:05:39;9.63;;;8.27;;
67442;SDS011;54311;51.726;5.154;2022-12-07T07:08:04;11.48;;;8.25;;
67442;SDS011;54311;51.726;5.154;2022-12-07T07:10:30;14.32;;;7.70;;
67442;SDS011;54311;51.726;5.154;2022-12-07T07:12:55;14.30;;;8.43;;
67442;SDS011;54311;51.726;5.154;2022-12-07T07:15:21;10.80;;;7.60;;
67442;SDS011;54311;51.726;5.154;2022-12-07T07:17:46;14.23;;;7.93;;
67442;SDS011;54311;51.726;5.154;2022-12-07T07:20:11;13.02;;;8.52;;
67442;SDS011;54311;51.726;5.154;2022-12-07T07:22:37;8.68;;;7.70;;
67442;SDS011;54311;51.726;5.154;2022-12-07T07:25:03;9.35;;;7.35;;
67442;SDS011;54311;51.726;5.154;2022-12-07T07:27:28;12.85;;;7.88;;
67442;SDS011;54311;51.726;5.154;2022-12-07T07:29:54;10.57;;;8.18;;
67442;SDS011;54311;51.726;5.154;2022-12-07T07:32:19;8.93;;;8.02;;
67442;SDS011;54311;51.726;5.154;2022-12-07T07:34:46;9.57;;;7.90;;
67442;SDS011;54311;51.726;5.154;2022-12-07T07:37:11;12.63;;;8.50;;
67442;SDS011;54311;51.726;5.154;2022-12-07T07:39:37;9.05;;;7.57;;
67442;SDS011;54311;51.726;5.154;2022-12-07T07:42:03;8.18;;;6.70;;
67442;SDS011;54311;51.726;5.154;2022-12-07T07:44:28;9.20;;;8.07;;
67442;SDS011;54311;51.726;5.154;2022-12-07T07:46:54;9.18;;;6.65;;
67442;SDS011;54311;51.726;5.154;2022-12-07T07:49:19;8.63;;;7.20;;
67442;SDS011;54311;51.726;5.154;2022-12-07T07:51:44;10.40;;;7.22;;
67442;SDS011;54311;51.726;5.154;2022-12-07T07:54:10;7.85;;;6.25;;
67442;SDS011;54311;51.726;5.154;2022-12-07T07:56:35;11.23;;;7.03;;
67442;SDS011;54311;51.726;5.154;2022-12-07T07:59:00;11.30;;;6.43;;
67442;SDS011;54311;51.726;5.154;2022-12-07T08:01:26;10.50;;;6.07;;
67442;SDS011;54311;51.726;5.154;2022-12-07T08:03:51;13.05;;;6.35;;
67442;SDS011;54311;51.726;5.154;2022-12-07T08:06:16;9.25;;;6.40;;
67442;SDS011;54311;51.726;5.154;2022-12-07T08:08:42;7.05;;;6.20;;
67442;SDS011;54311;51.726;5.154;2022-12-07T08:11:08;7.07;;;6.38;;
67442;SDS011;54311;51.726;5.154;2022-12-07T08:13:34;14.27;;;6.55;;
67442;SDS011;54311;51.726;5.154;2022-12-07T08:16:07;7.22;;;6.47;;
67442;SDS011;54311;51.726;5.154;2022-12-07T08:18:35;9.68;;;6.05;;
67442;SDS011;54311;51.726;5.154;2022-12-07T08:21:02;8.15;;;6.72;;
67442;SDS011;54311;51.726;5.154;2022-12-07T08:23:28;8.95;;;6.30;;
67442;SDS011;54311;51.726;5.154;2022-12-07T08:25:53;6.95;;;5.95;;
67442;SDS011;54311;51.726;5.154;2022-12-07T08:28:18;9.25;;;6.63;;
67442;SDS011;54311;51.726;5.154;2022-12-07T08:30:44;8.90;;;6.53;;
67442;SDS011;54311;51.726;5.154;2022-12-07T08:33:09;7.07;;;6.38;;
67442;SDS011;54311;51.726;5.154;2022-12-07T08:35:35;9.57;;;6.50;;
67442;SDS011;54311;51.726;5.154;2022-12-07T08:38:01;11.85;;;7.07;;
67442;SDS011;54311;51.726;5.154;2022-12-07T08:40:27;11.38;;;7.45;;
67442;SDS011;54311;51.726;5.154;2022-12-07T08:42:53;11.43;;;6.85;;
67442;SDS011;54311;51.726;5.154;2022-12-07T08:45:19;14.75;;;6.65;;
67442;SDS011;54311;51.726;5.154;2022-12-07T08:47:55;14.77;;;7.68;;
67442;SDS011;54311;51.726;5.154;2022-12-07T08:50:23;9.93;;;7.50;;
67442;SDS011;54311;51.726;5.154;2022-12-07T08:52:50;13.75;;;7.05;;
67442;SDS011;54311;51.726;5.154;2022-12-07T08:55:17;7.47;;;6.60;;
67442;SDS011;54311;51.726;5.154;2022-12-07T08:57:43;10.23;;;8.02;;
67442;SDS011;54311;51.726;5.154;2022-12-07T09:00:09;9.23;;;7.10;;
67442;SDS011;54311;51.726;5.154;2022-12-07T09:02:35;6.82;;;6.20;;
67442;SDS011;54311;51.726;5.154;2022-12-07T09:05:00;7.93;;;6.53;;
67442;SDS011;54311;51.726;5.154;2022-12-07T09:07:26;9.27;;;6.80;;
67442;SDS011;54311;51.726;5.154;2022-12-07T09:09:52;13.77;;;8.02;;
67442;SDS011;54311;51.726;5.154;2022-12-07T09:12:17;8.98;;;7.18;;
67442;SDS011;54311;51.726;5.154;2022-12-07T09:14:42;16.15;;;8.60;;
67442;SDS011;54311;51.726;5.154;2022-12-07T09:17:08;13.10;;;8.18;;
67442;SDS011;54311;51.726;5.154;2022-12-07T09:19:36;11.10;;;8.95;;
67442;SDS011;54311;51.726;5.154;2022-12-07T09:22:02;11.00;;;9.40;;
67442;SDS011;54311;51.726;5.154;2022-12-07T09:24:29;11.85;;;9.65;;
67442;SDS011;54311;51.726;5.154;2022-12-07T09:26:54;13.40;;;8.93;;
67442;SDS011;54311;51.726;5.154;2022-12-07T09:29:20;14.55;;;9.00;;
67442;SDS011;54311;51.726;5.154;2022-12-07T09:31:45;14.07;;;9.40;;
67442;SDS011;54311;51.726;5.154;2022-12-07T09:34:11;9.55;;;8.52;;
67442;SDS011;54311;51.726;5.154;2022-12-07T09:36:36;13.70;;;9.52;;
67442;SDS011;54311;51.726;5.154;2022-12-07T09:39:02;11.70;;;9.38;;
67442;SDS011;54311;51.726;5.154;2022-12-07T09:41:30;16.17;;;9.00;;
67442;SDS011;54311;51.726;5.154;2022-12-07T09:43:59;11.95;;;8.75;;
67442;SDS011;54311;51.726;5.154;2022-12-07T09:46:28;8.38;;;7.65;;
67442;SDS011;54311;51.726;5.154;2022-12-07T09:49:01;11.60;;;7.68;;
67442;SDS011;54311;51.726;5.154;2022-12-07T09:51:26;13.25;;;8.65;;
67442;SDS011;54311;51.726;5.154;2022-12-07T09:53:53;16.20;;;8.73;;
67442;SDS011;54311;51.726;5.154;2022-12-07T09:56:19;11.18;;;9.13;;
67442;SDS011;54311;51.726;5.154;2022-12-07T09:58:45;13.95;;;9.27;;
67442;SDS011;54311;51.726;5.154;2022-12-07T10:03:53;9.80;;;8.77;;
67442;SDS011;54311;51.726;5.154;2022-12-07T10:06:19;13.35;;;9.43;;
67442;SDS011;54311;51.726;5.154;2022-12-07T10:08:45;16.17;;;9.07;;
67442;SDS011;54311;51.726;5.154;2022-12-07T10:11:11;12.38;;;9.55;;
67442;SDS011;54311;51.726;5.154;2022-12-07T10:13:40;11.15;;;9.20;;
67442;SDS011;54311;51.726;5.154;2022-12-07T10:19:38;13.43;;;8.70;;
67442;SDS011;54311;51.726;5.154;2022-12-07T10:22:09;20.05;;;8.60;;
67442;SDS011;54311;51.726;5.154;2022-12-07T10:24:34;8.23;;;7.55;;
67442;SDS011;54311;51.726;5.154;2022-12-07T10:27:02;11.75;;;8.35;;
67442;SDS011;54311;51.726;5.154;2022-12-07T10:31:55;15.35;;;7.70;;
67442;SDS011;54311;51.726;5.154;2022-12-07T10:34:29;10.07;;;7.80;;
67442;SDS011;54311;51.726;5.154;2022-12-07T10:39:42;9.77;;;7.70;;
67442;SDS011;54311;51.726;5.154;2022-12-07T10:42:29;10.80;;;7.75;;
67442;SDS011;54311;51.726;5.154;2022-12-07T10:45:09;10.13;;;7.13;;
67442;SDS011;54311;51.726;5.154;2022-12-07T10:47:48;11.68;;;7.82;;
67442;SDS011;54311;51.726;5.154;2022-12-07T10:51:06;15.00;;;6.72;;
67442;SDS011;54311;51.726;5.154;2022-12-07T10:58:30;14.00;;;7.20;;
67442;SDS011;54311;51.726;5.154;2022-12-07T11:03:36;11.98;;;6.97;;
67442;SDS011;54311;51.726;5.154;2022-12-07T11:21:44;7.93;;;7.00;;
67442;SDS011;54311;51.726;5.154;2022-12-07T11:35:42;8.93;;;6.13;;
67442;SDS011;54311;51.726;5.154;2022-12-07T11:38:41;8.77;;;5.60;;
67442;SDS011;54311;51.726;5.154;2022-12-07T11:41:09;10.68;;;5.43;;
67442;SDS011;54311;51.726;5.154;2022-12-07T11:43:42;6.78;;;5.13;;
67442;SDS011;54311;51.726;5.154;2022-12-07T11:46:11;10.40;;;5.28;;
67442;SDS011;54311;51.726;5.154;2022-12-07T11:48:44;9.82;;;5.18;;
67442;SDS011;54311;51.726;5.154;2022-12-07T11:51:12;7.80;;;4.97;;
67442;SDS011;54311;51.726;5.154;2022-12-07T11:56:39;10.88;;;5.05;;
67442;SDS011;54311;51.726;5.154;2022-12-07T12:04:31;5.53;;;4.68;;
67442;SDS011;54311;51.726;5.154;2022-12-07T12:07:19;5.40;;;4.90;;
67442;SDS011;54311;51.726;5.154;2022-12-07T12:10:02;8.10;;;5.32;;
67442;SDS011;54311;51.726;5.154;2022-12-07T12:12:46;7.75;;;5.00;;
67442;SDS011;54311;51.726;5.154;2022-12-07T12:17:50;6.33;;;4.90;;
67442;SDS011;54311;51.726;5.154;2022-12-07T12:20:26;10.48;;;5.40;;
67442;SDS011;54311;51.726;5.154;2022-12-07T12:23:09;6.40;;;4.60;;
67442;SDS011;54311;51.726;5.154;2022-12-07T12:25:39;4.43;;;4.13;;
67442;SDS011;54311;51.726;5.154;2022-12-07T12:28:15;11.70;;;4.28;;
67442;SDS011;54311;51.726;5.154;2022-12-07T12:30:45;4.57;;;4.18;;
67442;SDS011;54311;51.726;5.154;2022-12-07T12:33:30;5.05;;;4.07;;
67442;SDS011;54311;51.726;5.154;2022-12-07T12:46:55;6.95;;;4.00;;
67442;SDS011;54311;51.726;5.154;2022-12-07T12:54:35;4.57;;;4.05;;
67442;SDS011;54311;51.726;5.154;2022-12-07T12:57:09;8.30;;;4.35;;
67442;SDS011;54311;51.726;5.154;2022-12-07T13:02:27;8.30;;;5.28;;
67442;SDS011;54311;51.726;5.154;2022-12-07T13:05:00;7.80;;;4.82;;
67442;SDS011;54311;51.726;5.154;2022-12-07T13:10:25;9.02;;;4.95;;
67442;SDS011;54311;51.726;5.154;2022-12-07T13:13:08;16.10;;;5.72;;
67442;SDS011;54311;51.726;5.154;2022-12-07T13:23:18;7.68;;;5.63;;
67442;SDS011;54311;51.726;5.154;2022-12-07T13:25:49;9.18;;;5.68;;
67442;SDS011;54311;51.726;5.154;2022-12-07T13:28:19;7.43;;;5.50;;
67442;SDS011;54311;51.726;5.154;2022-12-07T13:31:00;7.78;;;5.10;;
67442;SDS011;54311;51.726;5.154;2022-12-07T13:33:30;4.47;;;4.05;;
67442;SDS011;54311;51.726;5.154;2022-12-07T13:35:56;4.03;;;3.42;;
67442;SDS011;54311;51.726;5.154;2022-12-07T13:38:28;3.53;;;3.33;;
67442;SDS011;54311;51.726;5.154;2022-12-07T13:43:43;11.45;;;8.23;;
67442;SDS011;54311;51.726;5.154;2022-12-07T13:46:13;5.70;;;5.22;;
67442;SDS011;54311;51.726;5.154;2022-12-07T13:48:48;7.60;;;4.00;;
67442;SDS011;54311;51.726;5.154;2022-12-07T13:51:19;4.30;;;3.40;;
67442;SDS011;54311;51.726;5.154;2022-12-07T13:53:50;3.85;;;3.60;;
67442;SDS011;54311;51.726;5.154;2022-12-07T13:56:17;3.90;;;3.60;;
67442;SDS011;54311;51.726;5.154;2022-12-07T13:58:42;4.13;;;3.83;;
67442;SDS011;54311;51.726;5.154;2022-12-07T14:01:08;5.47;;;4.20;;
67442;SDS011;54311;51.726;5.154;2022-12-07T14:03:34;6.82;;;4.30;;
67442;SDS011;54311;51.726;5.154;2022-12-07T14:06:05;4.00;;;3.50;;
67442;SDS011;54311;51.726;5.154;2022-12-07T14:08:36;4.22;;;3.92;;
67442;SDS011;54311;51.726;5.154;2022-12-07T14:11:02;4.53;;;4.13;;
67442;SDS011;54311;51.726;5.154;2022-12-07T14:15:55;5.70;;;4.63;;
67442;SDS011;54311;51.726;5.154;2022-12-07T14:18:40;4.15;;;3.85;;
67442;SDS011;54311;51.726;5.154;2022-12-07T14:21:13;3.70;;;3.50;;
67442;SDS011;54311;51.726;5.154;2022-12-07T14:23:43;4.00;;;3.70;;
67442;SDS011;54311;51.726;5.154;2022-12-07T14:26:19;4.20;;;3.88;;
67442;SDS011;54311;51.726;5.154;2022-12-07T14:28:45;4.68;;;3.88;;
67442;SDS011;54311;51.726;5.154;2022-12-07T14:31:12;4.93;;;4.63;;
67442;SDS011;54311;51.726;5.154;2022-12-07T14:33:39;5.82;;;5.32;;
67442;SDS011;54311;51.726;5.154;2022-12-07T14:36:04;11.65;;;6.85;;
67442;SDS011;54311;51.726;5.154;2022-12-07T14:38:30;5.72;;;5.18;;
67442;SDS011;54311;51.726;5.154;2022-12-07T14:40:55;5.82;;;5.20;;
67442;SDS011;54311;51.726;5.154;2022-12-07T14:43:41;4.68;;;4.28;;
67442;SDS011;54311;51.726;5.154;2022-12-07T14:46:06;4.22;;;4.03;;
67442;SDS011;54311;51.726;5.154;2022-12-07T14:48:32;4.05;;;3.90;;
67442;SDS011;54311;51.726;5.154;2022-12-07T14:50:57;4.10;;;3.80;;
67442;SDS011;54311;51.726;5.154;2022-12-07T14:53:24;4.95;;;4.55;;
67442;SDS011;54311;51.726;5.154;2022-12-07T14:55:54;4.13;;;3.70;;
67442;SDS011;54311;51.726;5.154;2022-12-07T14:58:19;4.00;;;3.90;;
67442;SDS011;54311;51.726;5.154;2022-12-07T15:00:45;4.28;;;3.97;;
67442;SDS011;54311;51.726;5.154;2022-12-07T15:03:12;4.22;;;3.90;;
67442;SDS011;54311;51.726;5.154;2022-12-07T15:05:38;4.18;;;3.88;;
67442;SDS011;54311;51.726;5.154;2022-12-07T15:08:03;3.85;;;3.60;;
67442;SDS011;54311;51.726;5.154;2022-12-07T15:10:30;4.10;;;3.75;;
67442;SDS011;54311;51.726;5.154;2022-12-07T15:13:01;3.47;;;3.38;;
67442;SDS011;54311;51.726;5.154;2022-12-07T15:15:49;5.38;;;4.93;;
67442;SDS011;54311;51.726;5.154;2022-12-07T15:18:16;7.07;;;5.00;;
67442;SDS011;54311;51.726;5.154;2022-12-07T15:20:42;4.97;;;4.50;;
67442;SDS011;54311;51.726;5.154;2022-12-07T15:23:08;4.70;;;4.50;;
67442;SDS011;54311;51.726;5.154;2022-12-07T15:25:35;4.55;;;4.25;;
67442;SDS011;54311;51.726;5.154;2022-12-07T15:28:00;5.28;;;4.82;;
67442;SDS011;54311;51.726;5.154;2022-12-07T15:30:25;4.93;;;4.57;;
67442;SDS011;54311;51.726;5.154;2022-12-07T15:32:51;5.20;;;4.70;;
67442;SDS011;54311;51.726;5.154;2022-12-07T15:35:17;5.30;;;4.90;;
67442;SDS011;54311;51.726;5.154;2022-12-07T15:37:43;5.40;;;4.95;;
67442;SDS011;54311;51.726;5.154;2022-12-07T15:40:08;5.25;;;4.97;;
67442;SDS011;54311;51.726;5.154;2022-12-07T15:42:37;5.55;;;5.13;;
67442;SDS011;54311;51.726;5.154;2022-12-07T15:45:03;6.15;;;5.57;;
67442;SDS011;54311;51.726;5.154;2022-12-07T15:47:30;6.72;;;6.13;;
67442;SDS011;54311;51.726;5.154;2022-12-07T15:50:14;5.95;;;5.45;;
67442;SDS011;54311;51.726;5.154;2022-12-07T15:52:41;6.22;;;5.75;;
67442;SDS011;54311;51.726;5.154;2022-12-07T15:55:06;8.32;;;6.13;;
67442;SDS011;54311;51.726;5.154;2022-12-07T15:57:32;6.55;;;5.85;;
67442;SDS011;54311;51.726;5.154;2022-12-07T15:59:59;7.40;;;5.93;;
67442;SDS011;54311;51.726;5.154;2022-12-07T16:02:25;5.60;;;5.15;;
67442;SDS011;54311;51.726;5.154;2022-12-07T16:04:51;6.50;;;5.28;;
67442;SDS011;54311;51.726;5.154;2022-12-07T16:07:17;5.38;;;4.90;;
67442;SDS011;54311;51.726;5.154;2022-12-07T16:09:43;5.88;;;5.45;;
67442;SDS011;54311;51.726;5.154;2022-12-07T16:12:09;5.80;;;5.30;;
67442;SDS011;54311;51.726;5.154;2022-12-07T16:14:35;5.38;;;5.05;;
67442;SDS011;54311;51.726;5.154;2022-12-07T16:17:01;6.00;;;5.40;;
67442;SDS011;54311;51.726;5.154;2022-12-07T16:19:26;5.72;;;4.93;;
67442;SDS011;54311;51.726;5.154;2022-12-07T16:21:52;6.65;;;5.53;;
67442;SDS011;54311;51.726;5.154;2022-12-07T16:24:17;7.25;;;6.63;;
67442;SDS011;54311;51.726;5.154;2022-12-07T16:26:43;8.10;;;7.43;;
67442;SDS011;54311;51.726;5.154;2022-12-07T16:29:13;10.02;;;7.93;;
67442;SDS011;54311;51.726;5.154;2022-12-07T16:31:39;10.98;;;7.88;;
67442;SDS011;54311;51.726;5.154;2022-12-07T16:34:05;10.45;;;9.55;;
67442;SDS011;54311;51.726;5.154;2022-12-07T16:36:30;17.38;;;15.75;;
67442;SDS011;54311;51.726;5.154;2022-12-07T16:38:57;20.30;;;18.48;;
67442;SDS011;54311;51.726;5.154;2022-12-07T16:41:23;18.13;;;16.30;;
67442;SDS011;54311;51.726;5.154;2022-12-07T16:43:48;24.80;;;22.20;;
67442;SDS011;54311;51.726;5.154;2022-12-07T16:46:14;29.85;;;26.83;;
67442;SDS011;54311;51.726;5.154;2022-12-07T16:48:40;29.35;;;26.70;;
67442;SDS011;54311;51.726;5.154;2022-12-07T16:51:06;35.88;;;32.38;;
67442;SDS011;54311;51.726;5.154;2022-12-07T16:53:36;22.23;;;20.13;;
67442;SDS011;54311;51.726;5.154;2022-12-07T16:56:03;13.48;;;12.27;;
67442;SDS011;54311;51.726;5.154;2022-12-07T16:58:28;14.13;;;11.35;;